LLBG/TLV METAR and TAF weather

Enter ICAO airport designator
Station Type Date Time Source
LLBG METAR 2019/06/18 14:50 UTC NOAA

LLBG 181450Z 29010KT 9999 FEW020 28/20 Q1012 NOSIG


Station Type Date Time Source
LLBG Decoded METAR 2019/06/18 14:50 UTC NOAA

Ben-Gurion International Airport, Israel (LLBG) 32-00N 034-54E 49M
Jun 18, 2019 - 10:50 AM EDT / 2019.06.18 1450 UTC
Wind: from the WNW (290 degrees) at 12 MPH (10 KT):0
Visibility: greater than 7 mile(s):0
Sky conditions: mostly clear
Temperature: 82 F (28 C)
Dew Point: 68 F (20 C)
Relative Humidity: 61%
Pressure (altimeter): 29.88 in. Hg (1012 hPa)
ob: LLBG 181450Z 29010KT 9999 FEW020 28/20 Q1012 NOSIG
cycle: 15

Station Type Date Time Source
LLBG TAF 2019/06/18 12:09 UTC NOAA

TAF TAF LLBG 181107Z 1812/1912 28012KT 9999 FEW035
BECMG 1816/1818 VRB04KT CAVOK
BECMG 1820/1822 14004KT
BECMG 1907/1909 27010KT TX29/1812Z TN21/1903Z

Example: see airport list